createdAt,value
2019-02-05T00:04:50.545Z,65.08
2019-02-05T00:09:53.343Z,65.34
2019-02-05T00:14:55.859Z,65.46
2019-02-05T00:19:58.386Z,65.44
2019-02-05T00:25:00.704Z,65.53
2019-02-05T00:30:05.035Z,65.67
2019-02-05T00:35:09.308Z,65.54
2019-02-05T00:40:12.515Z,65.59
2019-02-05T00:45:15.801Z,65.57
2019-02-05T00:50:18.909Z,65.82
2019-02-05T00:55:21.500Z,65.85
2019-02-05T01:00:27.238Z,66.06
2019-02-05T01:05:29.896Z,65.79
2019-02-05T01:10:32.134Z,65.69
2019-02-05T01:15:34.413Z,65.49
2019-02-05T01:20:37.748Z,65.64
2019-02-05T01:25:40.961Z,65.35
2019-02-05T01:30:43.460Z,65.43
2019-02-05T01:35:45.991Z,65.59
2019-02-05T01:40:48.554Z,65.19
2019-02-05T01:45:50.759Z,65.27
2019-02-05T01:50:52.913Z,65.18
2019-02-05T01:55:55.462Z,65.18
2019-02-05T02:00:58.258Z,64.83
2019-02-05T02:06:01.215Z,65.04
2019-02-05T02:11:03.770Z,64.89
2019-02-05T02:16:06.207Z,64.75
2019-02-05T02:21:09.595Z,64.76
2019-02-05T02:26:11.894Z,64.69
2019-02-05T02:31:14.880Z,64.55
2019-02-05T02:36:17.871Z,64.25
2019-02-05T02:41:20.050Z,64.50
2019-02-05T02:46:22.577Z,64.63
2019-02-05T02:51:25.106Z,64.61
2019-02-05T02:56:28.623Z,64.60
2019-02-05T03:01:31.472Z,64.20
2019-02-05T03:06:34.573Z,64.20
2019-02-05T03:11:38.037Z,64.48
2019-02-05T03:16:40.465Z,64.30
2019-02-05T03:21:42.612Z,64.47
2019-02-05T03:26:45.464Z,64.30
2019-02-05T03:31:47.974Z,64.27
2019-02-05T03:36:51.243Z,64.46
2019-02-05T03:41:53.708Z,64.21
2019-02-05T03:46:56.685Z,64.10
2019-02-05T03:52:13.503Z,64.09
2019-02-05T03:58:02.299Z,63.92
2019-02-05T04:03:31.747Z,63.98
2019-02-05T04:09:18.812Z,63.69
2019-02-05T04:15:11.177Z,63.54
2019-02-05T04:21:07.540Z,63.92
2019-02-05T04:26:58.072Z,63.82
2019-02-05T04:32:38.802Z,64.78
2019-02-05T04:38:38.959Z,65.53
2019-02-05T04:44:23.530Z,66.71
2019-02-05T04:50:07.741Z,68.48
2019-02-05T04:56:13.458Z,69.36
2019-02-05T05:01:47.010Z,70.05
2019-02-05T05:07:23.914Z,71.22
2019-02-05T05:12:29.075Z,71.58
2019-02-05T05:17:31.990Z,71.46
2019-02-05T05:22:34.203Z,71.51
2019-02-05T05:27:37.797Z,71.01
2019-02-05T05:32:40.584Z,70.78
2019-02-05T05:37:43.104Z,70.63
2019-02-05T05:42:46.304Z,70.37
2019-02-05T05:47:48.482Z,70.43
2019-02-05T05:52:51.463Z,70.27
2019-02-05T05:57:54.311Z,70.06
2019-02-05T06:02:57.416Z,69.67
2019-02-05T06:07:59.982Z,69.65
2019-02-05T06:13:02.665Z,69.72
2019-02-05T06:18:05.895Z,69.15
2019-02-05T06:23:08.661Z,68.88
2019-02-05T06:28:10.825Z,68.92
2019-02-05T06:33:12.971Z,68.33
2019-02-05T06:38:15.961Z,68.07
2019-02-05T06:43:18.125Z,67.74
2019-02-05T06:48:20.570Z,67.37
2019-02-05T06:53:23.934Z,67.15
2019-02-05T06:58:26.256Z,66.97
2019-02-05T07:03:28.921Z,66.92
2019-02-05T07:08:31.220Z,67.02
2019-02-05T07:13:33.453Z,67.45
2019-02-05T07:18:36.067Z,67.80
2019-02-05T07:23:38.255Z,68.09
2019-02-05T07:28:40.567Z,68.08
2019-02-05T07:33:43.039Z,68.07
2019-02-05T07:38:45.379Z,68.18
2019-02-05T07:43:48.027Z,67.83
2019-02-05T07:48:50.418Z,67.78
2019-02-05T07:53:52.911Z,67.76
2019-02-05T07:58:55.183Z,67.76
2019-02-05T08:03:57.988Z,67.30
2019-02-05T08:09:00.343Z,67.43
2019-02-05T08:14:06.188Z,67.67
2019-02-05T08:19:08.504Z,67.54
2019-02-05T08:24:11.021Z,67.34
2019-02-05T08:29:21.309Z,67.39
2019-02-05T08:34:18.216Z,67.39
2019-02-05T08:39:20.385Z,67.47
2019-02-05T08:44:22.608Z,67.13
2019-02-05T08:49:24.815Z,67.37
2019-02-05T08:54:28.142Z,67.01
2019-02-05T08:59:30.751Z,66.85
2019-02-05T09:04:33.422Z,66.69
2019-02-05T09:09:35.695Z,66.84
2019-02-05T09:14:38.599Z,66.59
2019-02-05T09:19:41.415Z,66.54
2019-02-05T09:24:45.058Z,66.36
2019-02-05T09:29:47.360Z,66.00
2019-02-05T09:34:49.555Z,65.95
2019-02-05T09:39:51.733Z,65.84
2019-02-05T09:44:53.917Z,65.83
2019-02-05T09:49:56.186Z,66.10
2019-02-05T09:54:58.779Z,66.03
2019-02-05T10:00:02.044Z,66.10
2019-02-05T10:05:07.917Z,66.33
2019-02-05T10:10:13.262Z,66.25
2019-02-05T10:15:19.371Z,65.97
2019-02-05T10:20:23.372Z,66.28
2019-02-05T10:25:25.855Z,66.02
2019-02-05T10:30:40.637Z,66.19
2019-02-05T10:35:43.195Z,66.22
2019-02-05T10:40:45.537Z,66.17
2019-02-05T10:45:47.949Z,66.19
2019-02-05T10:50:50.542Z,66.30
2019-02-05T10:55:53.428Z,66.46
2019-02-05T11:00:55.583Z,66.47
2019-02-05T11:05:58.415Z,66.33
2019-02-05T11:11:01.439Z,66.33
2019-02-05T11:16:05.045Z,66.50
2019-02-05T11:21:07.235Z,66.60
2019-02-05T11:26:09.808Z,66.76
2019-02-05T11:31:12.418Z,66.89
2019-02-05T11:36:14.668Z,67.15
2019-02-05T11:41:17.799Z,67.31
2019-02-05T11:46:20.684Z,67.51
2019-02-05T11:51:22.877Z,67.54
2019-02-05T11:56:28.122Z,67.68
2019-02-05T12:01:38.845Z,67.31
2019-02-05T12:06:37.858Z,67.30
2019-02-05T12:11:40.700Z,67.65
2019-02-05T12:16:43.406Z,67.78
2019-02-05T12:21:46.527Z,67.71
2019-02-05T12:26:48.856Z,67.77
2019-02-05T12:31:51.129Z,67.91
2019-02-05T12:36:53.299Z,67.95
2019-02-05T12:41:55.920Z,68.12
2019-02-05T12:46:58.308Z,68.00
2019-02-05T12:52:00.756Z,68.09
2019-02-05T12:57:03.475Z,68.13
2019-02-05T13:02:05.985Z,68.48
2019-02-05T13:07:09.073Z,68.48
2019-02-05T13:12:11.849Z,68.50
2019-02-05T13:17:14.075Z,68.76
2019-02-05T13:22:16.934Z,68.70
2019-02-05T13:27:19.898Z,68.86
2019-02-05T13:32:23.393Z,69.00
2019-02-05T13:37:26.985Z,68.96
2019-02-05T13:42:29.835Z,68.91
2019-02-05T13:47:33.927Z,69.00
2019-02-05T13:52:38.978Z,68.99
2019-02-05T13:57:42.177Z,68.85
2019-02-05T14:02:44.548Z,68.67
2019-02-05T14:07:47.560Z,69.11
2019-02-05T14:12:50.488Z,69.28
2019-02-05T14:17:53.600Z,69.21
2019-02-05T14:22:56.680Z,69.18
2019-02-05T14:27:59.411Z,69.57
2019-02-05T14:33:02.220Z,69.53
2019-02-05T14:38:07.195Z,69.64
2019-02-05T14:43:10.837Z,69.52
2019-02-05T14:48:14.243Z,69.53
2019-02-05T14:53:16.516Z,69.54
2019-02-05T14:58:19.445Z,69.65
2019-02-05T15:03:22.658Z,69.55
2019-02-05T15:08:25.151Z,69.66
2019-02-05T15:13:27.345Z,69.79
2019-02-05T15:18:30.641Z,69.83
2019-02-05T15:23:33.414Z,69.99
2019-02-05T15:28:36.767Z,70.06
2019-02-05T15:33:44.730Z,70.09
2019-02-05T15:38:47.887Z,70.02
2019-02-05T15:43:51.793Z,69.80
2019-02-05T15:48:54.083Z,70.01
2019-02-05T15:53:58.639Z,69.83
2019-02-05T15:59:02.139Z,69.80
2019-02-05T16:04:05.536Z,69.98
2019-02-05T16:09:10.322Z,70.04
2019-02-05T16:14:13.145Z,70.05
2019-02-05T16:19:15.314Z,70.03
2019-02-05T16:24:17.566Z,69.80
2019-02-05T16:29:21.389Z,69.96
2019-02-05T16:34:23.571Z,70.16
2019-02-05T16:39:26.186Z,70.00
2019-02-05T16:44:28.409Z,70.16
2019-02-05T16:49:30.725Z,70.15
2019-02-05T16:54:32.877Z,70.06
2019-02-05T16:59:35.107Z,70.24
2019-02-05T17:04:37.353Z,70.28
2019-02-05T17:09:40.086Z,70.07
2019-02-05T17:14:42.414Z,70.26
2019-02-05T17:19:44.591Z,69.95
2019-02-05T17:24:47.245Z,70.14
2019-02-05T17:29:50.459Z,70.05
2019-02-05T17:34:52.929Z,70.10
2019-02-05T17:39:55.116Z,69.83
2019-02-05T17:44:57.338Z,69.68
2019-02-05T17:49:59.524Z,69.65
2019-02-05T17:55:01.996Z,69.60
2019-02-05T18:00:10.865Z,69.40
2019-02-05T18:05:15.009Z,69.16
2019-02-05T18:10:20.792Z,69.27
2019-02-05T18:15:27.239Z,69.44
2019-02-05T18:20:29.531Z,69.74
2019-02-05T18:25:31.891Z,69.84
2019-02-05T18:30:35.213Z,69.85
2019-02-05T18:35:38.129Z,70.08
2019-02-05T18:40:41.536Z,70.16
2019-02-05T18:45:43.727Z,70.12
2019-02-05T18:50:46.302Z,70.21
2019-02-05T18:55:48.610Z,70.16
2019-02-05T19:00:51.011Z,70.27
2019-02-05T19:05:53.239Z,70.32
2019-02-05T19:10:55.358Z,70.06
2019-02-05T19:15:57.848Z,70.03
2019-02-05T19:21:00.245Z,70.09
2019-02-05T19:26:12.345Z,70.22
2019-02-05T19:31:36.715Z,70.14
2019-02-05T19:36:39.508Z,70.11
2019-02-05T19:41:41.988Z,70.10
2019-02-05T19:46:56.051Z,70.31
2019-02-05T19:51:59.026Z,70.23
2019-02-05T19:57:01.721Z,70.23
2019-02-05T20:02:04.422Z,70.13
2019-02-05T20:07:07.087Z,70.16
2019-02-05T20:12:09.893Z,70.09
2019-02-05T20:17:12.838Z,70.11
2019-02-05T20:22:15.299Z,70.00
2019-02-05T20:27:17.551Z,69.97
2019-02-05T20:32:20.103Z,69.91
2019-02-05T20:37:22.864Z,69.81
2019-02-05T20:42:26.327Z,69.78
2019-02-05T20:47:28.468Z,69.73
2019-02-05T20:52:30.973Z,69.71
2019-02-05T20:57:33.144Z,69.48
2019-02-05T21:02:35.752Z,69.60
2019-02-05T21:07:38.466Z,69.50
2019-02-05T21:12:41.070Z,69.48
2019-02-05T21:17:43.405Z,69.42
2019-02-05T21:22:47.855Z,69.35
2019-02-05T21:27:50.544Z,69.36
2019-02-05T21:32:54.382Z,69.39
2019-02-05T21:37:57.266Z,69.31
2019-02-05T21:42:59.854Z,69.10
2019-02-05T21:48:02.351Z,69.02
2019-02-05T21:53:04.853Z,69.22
2019-02-05T21:58:07.118Z,69.32
2019-02-05T22:03:09.744Z,69.40
2019-02-05T22:08:12.421Z,69.27
2019-02-05T22:13:15.128Z,69.53
2019-02-05T22:18:17.346Z,69.58
2019-02-05T22:23:20.087Z,69.60
2019-02-05T22:28:22.226Z,69.53
2019-02-05T22:33:27.991Z,69.38
2019-02-05T22:38:29.261Z,69.44
2019-02-05T22:43:31.549Z,69.58
2019-02-05T22:48:33.725Z,69.52
2019-02-05T22:53:36.289Z,69.75
2019-02-05T22:58:39.431Z,69.80
2019-02-05T23:03:47.647Z,69.67
2019-02-05T23:08:51.201Z,69.94
2019-02-05T23:13:54.367Z,70.03
2019-02-05T23:18:57.564Z,70.15
2019-02-05T23:23:59.956Z,70.18
2019-02-05T23:29:02.164Z,70.21
2019-02-05T23:34:05.143Z,70.25
2019-02-05T23:39:08.636Z,69.99
2019-02-05T23:44:12.789Z,69.99
2019-02-05T23:49:15.296Z,70.07
2019-02-05T23:54:18.063Z,70.14
2019-02-05T23:59:20.852Z,70.01
